sensor_id;sensor_type;location;lat;lon;timestamp;temperature;humidity
65369;HTU21D;51970;53.484;49.488;2023-06-10T00:02:01;17.61;67.78
65369;HTU21D;51970;53.484;49.488;2023-06-10T00:04:27;17.64;68.46
65369;HTU21D;51970;53.484;49.488;2023-06-10T00:06:54;17.68;68.00
65369;HTU21D;51970;53.484;49.488;2023-06-10T00:09:21;17.67;68.29
65369;HTU21D;51970;53.484;49.488;2023-06-10T00:11:48;17.67;68.15
65369;HTU21D;51970;53.484;49.488;2023-06-10T00:14:15;17.66;67.89
65369;HTU21D;51970;53.484;49.488;2023-06-10T00:16:42;17.65;67.89
65369;HTU21D;51970;53.484;49.488;2023-06-10T00:19:10;17.64;68.20
65369;HTU21D;51970;53.484;49.488;2023-06-10T00:21:41;17.66;67.67
65369;HTU21D;51970;53.484;49.488;2023-06-10T00:24:08;17.65;68.15
65369;HTU21D;51970;53.484;49.488;2023-06-10T00:26:41;17.65;68.33
65369;HTU21D;51970;53.484;49.488;2023-06-10T00:29:09;17.66;68.30
65369;HTU21D;51970;53.484;49.488;2023-06-10T00:31:37;17.66;68.26
65369;HTU21D;51970;53.484;49.488;2023-06-10T00:34:05;17.65;68.51
65369;HTU21D;51970;53.484;49.488;2023-06-10T00:36:33;17.66;68.81
65369;HTU21D;51970;53.484;49.488;2023-06-10T00:38:59;17.66;68.56
65369;HTU21D;51970;53.484;49.488;2023-06-10T00:41:25;17.69;68.51
65369;HTU21D;51970;53.484;49.488;2023-06-10T00:43:54;17.74;68.49
65369;HTU21D;51970;53.484;49.488;2023-06-10T00:46:24;17.77;67.95
65369;HTU21D;51970;53.484;49.488;2023-06-10T00:49:00;17.81;68.07
65369;HTU21D;51970;53.484;49.488;2023-06-10T00:51:26;17.87;68.03
65369;HTU21D;51970;53.484;49.488;2023-06-10T00:53:53;17.90;68.07
65369;HTU21D;51970;53.484;49.488;2023-06-10T00:56:20;17.93;67.82
65369;HTU21D;51970;53.484;49.488;2023-06-10T00:58:47;17.99;68.04
65369;HTU21D;51970;53.484;49.488;2023-06-10T01:01:14;18.06;67.52
65369;HTU21D;51970;53.484;49.488;2023-06-10T01:03:41;18.12;67.04
65369;HTU21D;51970;53.484;49.488;2023-06-10T01:09:23;18.20;65.56
65369;HTU21D;51970;53.484;49.488;2023-06-10T01:14:48;18.30;64.37
65369;HTU21D;51970;53.484;49.488;2023-06-10T01:17:17;19.03;62.21
65369;HTU21D;51970;53.484;49.488;2023-06-10T01:19:44;19.47;60.23
65369;HTU21D;51970;53.484;49.488;2023-06-10T01:22:14;20.02;58.13
65369;HTU21D;51970;53.484;49.488;2023-06-10T01:24:58;20.71;56.57
65369;HTU21D;51970;53.484;49.488;2023-06-10T01:27:31;21.65;53.34
65369;HTU21D;51970;53.484;49.488;2023-06-10T01:30:16;22.50;50.92
65369;HTU21D;51970;53.484;49.488;2023-06-10T01:32:50;23.41;48.34
65369;HTU21D;51970;53.484;49.488;2023-06-10T01:35:21;24.06;46.76
65369;HTU21D;51970;53.484;49.488;2023-06-10T01:37:53;24.55;45.82
65369;HTU21D;51970;53.484;49.488;2023-06-10T01:40:20;25.42;43.43
65369;HTU21D;51970;53.484;49.488;2023-06-10T01:42:47;25.80;42.42
65369;HTU21D;51970;53.484;49.488;2023-06-10T01:45:13;26.05;41.90
65369;HTU21D;51970;53.484;49.488;2023-06-10T01:47:40;26.12;41.98
65369;HTU21D;51970;53.484;49.488;2023-06-10T01:50:06;26.43;41.07
65369;HTU21D;51970;53.484;49.488;2023-06-10T01:52:33;26.61;41.58
65369;HTU21D;51970;53.484;49.488;2023-06-10T01:54:59;26.94;40.90
65369;HTU21D;51970;53.484;49.488;2023-06-10T01:57:25;27.42;38.82
65369;HTU21D;51970;53.484;49.488;2023-06-10T01:59:51;27.64;38.62
65369;HTU21D;51970;53.484;49.488;2023-06-10T02:02:17;27.51;39.56
65369;HTU21D;51970;53.484;49.488;2023-06-10T02:04:43;27.09;40.49
65369;HTU21D;51970;53.484;49.488;2023-06-10T02:07:11;26.78;41.57
65369;HTU21D;51970;53.484;49.488;2023-06-10T02:09:38;27.10;40.75
65369;HTU21D;51970;53.484;49.488;2023-06-10T02:12:04;27.25;40.50
65369;HTU21D;51970;53.484;49.488;2023-06-10T02:14:42;27.46;40.73
65369;HTU21D;51970;53.484;49.488;2023-06-10T02:17:09;28.19;38.46
65369;HTU21D;51970;53.484;49.488;2023-06-10T02:19:44;29.00;36.86
65369;HTU21D;51970;53.484;49.488;2023-06-10T02:22:22;29.73;35.46
65369;HTU21D;51970;53.484;49.488;2023-06-10T02:24:50;30.17;34.34
65369;HTU21D;51970;53.484;49.488;2023-06-10T02:27:16;30.46;33.65
65369;HTU21D;51970;53.484;49.488;2023-06-10T02:29:42;30.21;34.16
65369;HTU21D;51970;53.484;49.488;2023-06-10T02:32:09;30.57;34.02
65369;HTU21D;51970;53.484;49.488;2023-06-10T02:34:36;30.40;33.96
65369;HTU21D;51970;53.484;49.488;2023-06-10T02:37:03;30.16;33.99
65369;HTU21D;51970;53.484;49.488;2023-06-10T02:39:35;30.12;34.12
65369;HTU21D;51970;53.484;49.488;2023-06-10T02:42:10;30.07;35.46
65369;HTU21D;51970;53.484;49.488;2023-06-10T02:44:47;30.46;34.66
65369;HTU21D;51970;53.484;49.488;2023-06-10T02:47:15;30.57;34.09
65369;HTU21D;51970;53.484;49.488;2023-06-10T02:49:49;30.36;34.45
65369;HTU21D;51970;53.484;49.488;2023-06-10T02:52:16;30.53;34.31
65369;HTU21D;51970;53.484;49.488;2023-06-10T02:54:42;30.74;35.07
65369;HTU21D;51970;53.484;49.488;2023-06-10T02:57:14;31.35;33.97
65369;HTU21D;51970;53.484;49.488;2023-06-10T02:59:41;31.72;32.75
65369;HTU21D;51970;53.484;49.488;2023-06-10T03:02:07;31.20;33.84
65369;HTU21D;51970;53.484;49.488;2023-06-10T03:04:35;31.26;33.63
65369;HTU21D;51970;53.484;49.488;2023-06-10T03:07:04;30.94;34.68
65369;HTU21D;51970;53.484;49.488;2023-06-10T03:09:37;30.64;34.14
65369;HTU21D;51970;53.484;49.488;2023-06-10T03:12:21;30.80;34.15
65369;HTU21D;51970;53.484;49.488;2023-06-10T03:14:47;31.16;33.47
65369;HTU21D;51970;53.484;49.488;2023-06-10T03:17:14;30.22;33.07
65369;HTU21D;51970;53.484;49.488;2023-06-10T03:19:43;29.60;34.54
65369;HTU21D;51970;53.484;49.488;2023-06-10T03:22:29;29.13;34.10
65369;HTU21D;51970;53.484;49.488;2023-06-10T03:24:59;29.52;33.62
65369;HTU21D;51970;53.484;49.488;2023-06-10T03:27:28;29.58;34.08
65369;HTU21D;51970;53.484;49.488;2023-06-10T03:29:58;29.34;33.56
65369;HTU21D;51970;53.484;49.488;2023-06-10T03:32:28;29.00;34.38
65369;HTU21D;51970;53.484;49.488;2023-06-10T03:35:04;29.42;33.55
65369;HTU21D;51970;53.484;49.488;2023-06-10T03:37:34;29.20;34.18
65369;HTU21D;51970;53.484;49.488;2023-06-10T03:40:22;28.95;34.79
65369;HTU21D;51970;53.484;49.488;2023-06-10T03:43:00;27.04;38.65
65369;HTU21D;51970;53.484;49.488;2023-06-10T03:45:49;25.13;43.13
65369;HTU21D;51970;53.484;49.488;2023-06-10T03:49:10;23.98;45.99
65369;HTU21D;51970;53.484;49.488;2023-06-10T03:52:17;23.62;46.99
65369;HTU21D;51970;53.484;49.488;2023-06-10T03:54:51;23.55;47.41
65369;HTU21D;51970;53.484;49.488;2023-06-10T03:58:01;23.45;47.65
65369;HTU21D;51970;53.484;49.488;2023-06-10T04:00:48;23.39;48.00
65369;HTU21D;51970;53.484;49.488;2023-06-10T04:03:42;23.50;48.12
65369;HTU21D;51970;53.484;49.488;2023-06-10T04:06:38;23.72;47.14
65369;HTU21D;51970;53.484;49.488;2023-06-10T04:09:37;23.77;46.51
65369;HTU21D;51970;53.484;49.488;2023-06-10T04:12:28;23.55;47.54
65369;HTU21D;51970;53.484;49.488;2023-06-10T04:15:14;23.37;48.93
65369;HTU21D;51970;53.484;49.488;2023-06-10T04:17:44;23.29;49.11
65369;HTU21D;51970;53.484;49.488;2023-06-10T04:20:52;23.36;49.55
65369;HTU21D;51970;53.484;49.488;2023-06-10T04:23:37;23.68;48.17
65369;HTU21D;51970;53.484;49.488;2023-06-10T04:26:25;23.57;46.64
65369;HTU21D;51970;53.484;49.488;2023-06-10T04:28:56;23.46;47.22
65369;HTU21D;51970;53.484;49.488;2023-06-10T04:31:27;23.47;47.50
65369;HTU21D;51970;53.484;49.488;2023-06-10T04:34:06;23.45;47.17
65369;HTU21D;51970;53.484;49.488;2023-06-10T04:36:42;23.54;47.15
65369;HTU21D;51970;53.484;49.488;2023-06-10T04:40:08;23.69;47.03
65369;HTU21D;51970;53.484;49.488;2023-06-10T04:43:27;23.69;47.32
65369;HTU21D;51970;53.484;49.488;2023-06-10T04:46:17;23.69;46.89
65369;HTU21D;51970;53.484;49.488;2023-06-10T04:49:27;23.82;46.90
65369;HTU21D;51970;53.484;49.488;2023-06-10T04:52:01;24.00;46.51
65369;HTU21D;51970;53.484;49.488;2023-06-10T04:55:22;24.38;46.15
65369;HTU21D;51970;53.484;49.488;2023-06-10T04:58:23;24.43;45.64
65369;HTU21D;51970;53.484;49.488;2023-06-10T05:01:15;24.47;45.75
65369;HTU21D;51970;53.484;49.488;2023-06-10T05:04:04;24.58;46.04
65369;HTU21D;51970;53.484;49.488;2023-06-10T05:06:52;24.66;45.40
65369;HTU21D;51970;53.484;49.488;2023-06-10T05:09:55;24.47;45.57
65369;HTU21D;51970;53.484;49.488;2023-06-10T05:12:53;24.45;46.55
65369;HTU21D;51970;53.484;49.488;2023-06-10T05:15:37;24.61;45.96
65369;HTU21D;51970;53.484;49.488;2023-06-10T05:18:14;24.58;45.84
65369;HTU21D;51970;53.484;49.488;2023-06-10T05:21:02;24.62;46.05
65369;HTU21D;51970;53.484;49.488;2023-06-10T05:24:02;24.79;46.19
65369;HTU21D;51970;53.484;49.488;2023-06-10T05:27:12;24.95;45.42
65369;HTU21D;51970;53.484;49.488;2023-06-10T05:29:56;24.99;45.03
65369;HTU21D;51970;53.484;49.488;2023-06-10T05:32:39;24.86;45.48
65369;HTU21D;51970;53.484;49.488;2023-06-10T05:35:40;24.80;45.69
65369;HTU21D;51970;53.484;49.488;2023-06-10T05:38:15;24.78;45.37
65369;HTU21D;51970;53.484;49.488;2023-06-10T05:40:54;24.87;45.89
65369;HTU21D;51970;53.484;49.488;2023-06-10T05:43:31;25.12;46.05
65369;HTU21D;51970;53.484;49.488;2023-06-10T05:47:25;25.33;45.34
65369;HTU21D;51970;53.484;49.488;2023-06-10T05:50:00;25.56;43.89
65369;HTU21D;51970;53.484;49.488;2023-06-10T05:52:39;25.64;43.76
65369;HTU21D;51970;53.484;49.488;2023-06-10T05:56:01;25.43;43.01
65369;HTU21D;51970;53.484;49.488;2023-06-10T05:59:14;25.17;44.17
65369;HTU21D;51970;53.484;49.488;2023-06-10T06:02:07;25.33;43.68
65369;HTU21D;51970;53.484;49.488;2023-06-10T06:05:37;25.56;42.93
65369;HTU21D;51970;53.484;49.488;2023-06-10T06:08:39;25.74;42.11
65369;HTU21D;51970;53.484;49.488;2023-06-10T06:11:34;25.86;41.82
65369;HTU21D;51970;53.484;49.488;2023-06-10T06:14:24;25.93;41.62
65369;HTU21D;51970;53.484;49.488;2023-06-10T06:17:20;26.03;40.97
65369;HTU21D;51970;53.484;49.488;2023-06-10T06:20:31;26.11;40.47
65369;HTU21D;51970;53.484;49.488;2023-06-10T06:23:37;26.34;41.03
65369;HTU21D;51970;53.484;49.488;2023-06-10T06:26:28;26.71;39.92
65369;HTU21D;51970;53.484;49.488;2023-06-10T06:29:21;26.66;40.00
65369;HTU21D;51970;53.484;49.488;2023-06-10T06:31:50;26.60;40.21
65369;HTU21D;51970;53.484;49.488;2023-06-10T06:34:40;26.60;38.77
65369;HTU21D;51970;53.484;49.488;2023-06-10T06:37:52;26.51;38.69
65369;HTU21D;51970;53.484;49.488;2023-06-10T06:41:06;26.43;38.97
65369;HTU21D;51970;53.484;49.488;2023-06-10T06:44:38;26.36;38.23
65369;HTU21D;51970;53.484;49.488;2023-06-10T06:47:59;26.26;37.67
65369;HTU21D;51970;53.484;49.488;2023-06-10T06:51:25;26.47;37.12
65369;HTU21D;51970;53.484;49.488;2023-06-10T06:54:47;26.46;36.63
65369;HTU21D;51970;53.484;49.488;2023-06-10T06:57:39;26.50;36.80
65369;HTU21D;51970;53.484;49.488;2023-06-10T07:01:57;26.75;37.09
65369;HTU21D;51970;53.484;49.488;2023-06-10T07:04:36;26.60;38.08
65369;HTU21D;51970;53.484;49.488;2023-06-10T07:10:49;26.65;38.32
65369;HTU21D;51970;53.484;49.488;2023-06-10T07:13:20;26.71;38.38
65369;HTU21D;51970;53.484;49.488;2023-06-10T07:15:54;26.71;37.70
65369;HTU21D;51970;53.484;49.488;2023-06-10T07:18:44;26.76;37.49
65369;HTU21D;51970;53.484;49.488;2023-06-10T07:21:25;26.97;37.38
65369;HTU21D;51970;53.484;49.488;2023-06-10T07:23:57;26.95;36.51
65369;HTU21D;51970;53.484;49.488;2023-06-10T07:27:03;27.15;36.34
65369;HTU21D;51970;53.484;49.488;2023-06-10T07:30:46;27.07;37.99
65369;HTU21D;51970;53.484;49.488;2023-06-10T07:34:28;27.24;38.22
65369;HTU21D;51970;53.484;49.488;2023-06-10T07:37:36;27.43;37.85
65369;HTU21D;51970;53.484;49.488;2023-06-10T07:58:47;27.97;37.79
65369;HTU21D;51970;53.484;49.488;2023-06-10T08:01:25;28.04;37.60
65369;HTU21D;51970;53.484;49.488;2023-06-10T08:04:37;27.57;38.70
65369;HTU21D;51970;53.484;49.488;2023-06-10T08:08:07;27.56;38.99
65369;HTU21D;51970;53.484;49.488;2023-06-10T08:11:30;27.67;39.52
65369;HTU21D;51970;53.484;49.488;2023-06-10T08:14:35;27.69;39.26
65369;HTU21D;51970;53.484;49.488;2023-06-10T08:17:50;27.11;39.92
65369;HTU21D;51970;53.484;49.488;2023-06-10T08:21:18;26.83;41.07
65369;HTU21D;51970;53.484;49.488;2023-06-10T08:24:23;26.65;41.42
65369;HTU21D;51970;53.484;49.488;2023-06-10T08:27:48;26.77;42.98
65369;HTU21D;51970;53.484;49.488;2023-06-10T08:48:43;26.68;40.69
65369;HTU21D;51970;53.484;49.488;2023-06-10T08:52:35;26.96;39.95
65369;HTU21D;51970;53.484;49.488;2023-06-10T08:56:01;26.89;40.04
65369;HTU21D;51970;53.484;49.488;2023-06-10T09:09:59;25.91;45.71
65369;HTU21D;51970;53.484;49.488;2023-06-10T12:23:08;17.08;118.99
65369;HTU21D;51970;53.484;49.488;2023-06-10T12:27:10;17.19;118.99
65369;HTU21D;51970;53.484;49.488;2023-06-10T12:38:17;17.00;118.99
65369;HTU21D;51970;53.484;49.488;2023-06-10T12:41:39;16.76;118.99
65369;HTU21D;51970;53.484;49.488;2023-06-10T12:44:28;16.84;118.99
65369;HTU21D;51970;53.484;49.488;2023-06-10T12:47:45;16.85;118.99
65369;HTU21D;51970;53.484;49.488;2023-06-10T12:51:19;16.91;118.99
65369;HTU21D;51970;53.484;49.488;2023-06-10T12:54:27;17.07;118.99
65369;HTU21D;51970;53.484;49.488;2023-06-10T12:57:06;16.92;118.99
65369;HTU21D;51970;53.484;49.488;2023-06-10T12:59:51;16.82;118.99
65369;HTU21D;51970;53.484;49.488;2023-06-10T13:03:03;16.79;118.99
65369;HTU21D;51970;53.484;49.488;2023-06-10T13:06:36;16.76;118.99
65369;HTU21D;51970;53.484;49.488;2023-06-10T13:30:30;16.78;118.99
65369;HTU21D;51970;53.484;49.488;2023-06-10T13:34:02;16.87;118.99
65369;HTU21D;51970;53.484;49.488;2023-06-10T13:37:50;16.76;118.99
65369;HTU21D;51970;53.484;49.488;2023-06-10T13:40:40;16.70;118.99
65369;HTU21D;51970;53.484;49.488;2023-06-10T13:43:39;16.81;118.99
65369;HTU21D;51970;53.484;49.488;2023-06-10T13:47:16;16.76;118.99
65369;HTU21D;51970;53.484;49.488;2023-06-10T13:50:22;16.90;118.99
65369;HTU21D;51970;53.484;49.488;2023-06-10T13:53:18;17.11;118.99
65369;HTU21D;51970;53.484;49.488;2023-06-10T13:57:13;17.32;118.99
65369;HTU21D;51970;53.484;49.488;2023-06-10T14:01:04;17.35;118.99
65369;HTU21D;51970;53.484;49.488;2023-06-10T14:04:33;17.51;118.99
65369;HTU21D;51970;53.484;49.488;2023-06-10T14:08:22;17.54;118.99
65369;HTU21D;51970;53.484;49.488;2023-06-10T14:12:18;17.23;118.99
65369;HTU21D;51970;53.484;49.488;2023-06-10T14:16:17;17.25;118.99
65369;HTU21D;51970;53.484;49.488;2023-06-10T14:18:58;17.11;118.99
65369;HTU21D;51970;53.484;49.488;2023-06-10T14:21:43;17.08;118.99
65369;HTU21D;51970;53.484;49.488;2023-06-10T14:24:32;17.13;118.99
65369;HTU21D;51970;53.484;49.488;2023-06-10T14:27:25;17.07;118.99
65369;HTU21D;51970;53.484;49.488;2023-06-10T14:30:20;17.00;118.99
65369;HTU21D;51970;53.484;49.488;2023-06-10T14:33:42;16.76;118.99
65369;HTU21D;51970;53.484;49.488;2023-06-10T14:37:20;16.77;118.99
65369;HTU21D;51970;53.484;49.488;2023-06-10T14:40:52;17.18;118.99
65369;HTU21D;51970;53.484;49.488;2023-06-10T14:43:52;17.08;118.99
65369;HTU21D;51970;53.484;49.488;2023-06-10T14:46:24;16.90;118.99
65369;HTU21D;51970;53.484;49.488;2023-06-10T14:49:44;16.92;118.99
65369;HTU21D;51970;53.484;49.488;2023-06-10T14:52:31;16.86;118.99
65369;HTU21D;51970;53.484;49.488;2023-06-10T14:55:36;16.99;118.99
65369;HTU21D;51970;53.484;49.488;2023-06-10T14:58:20;16.82;118.99
65369;HTU21D;51970;53.484;49.488;2023-06-10T15:01:27;16.76;118.99
65369;HTU21D;51970;53.484;49.488;2023-06-10T15:04:20;16.82;118.99
65369;HTU21D;51970;53.484;49.488;2023-06-10T15:07:27;16.85;118.99
65369;HTU21D;51970;53.484;49.488;2023-06-10T15:10:24;16.86;118.99
65369;HTU21D;51970;53.484;49.488;2023-06-10T15:13:30;16.91;118.99
65369;HTU21D;51970;53.484;49.488;2023-06-10T15:16:30;16.85;118.99
65369;HTU21D;51970;53.484;49.488;2023-06-10T15:20:36;16.84;118.99
65369;HTU21D;51970;53.484;49.488;2023-06-10T15:23:07;16.80;118.99
65369;HTU21D;51970;53.484;49.488;2023-06-10T15:25:46;16.62;118.99
65369;HTU21D;51970;53.484;49.488;2023-06-10T15:35:22;16.47;118.99
65369;HTU21D;51970;53.484;49.488;2023-06-10T15:38:16;16.26;118.99
65369;HTU21D;51970;53.484;49.488;2023-06-10T15:40:48;16.08;118.99
65369;HTU21D;51970;53.484;49.488;2023-06-10T15:43:58;16.00;118.99
65369;HTU21D;51970;53.484;49.488;2023-06-10T15:46:29;15.85;118.99
65369;HTU21D;51970;53.484;49.488;2023-06-10T15:48:58;15.85;118.99
65369;HTU21D;51970;53.484;49.488;2023-06-10T15:51:30;15.81;118.99
65369;HTU21D;51970;53.484;49.488;2023-06-10T15:54:18;15.75;118.99
65369;HTU21D;51970;53.484;49.488;2023-06-10T15:56:54;15.81;118.99
65369;HTU21D;51970;53.484;49.488;2023-06-10T15:59:31;15.77;118.99
65369;HTU21D;51970;53.484;49.488;2023-06-10T16:02:07;15.70;118.99
65369;HTU21D;51970;53.484;49.488;2023-06-10T16:05:18;15.60;118.99
65369;HTU21D;51970;53.484;49.488;2023-06-10T16:08:07;15.55;118.99
65369;HTU21D;51970;53.484;49.488;2023-06-10T16:11:16;15.54;118.99
65369;HTU21D;51970;53.484;49.488;2023-06-10T16:13:56;15.52;118.99
65369;HTU21D;51970;53.484;49.488;2023-06-10T16:16:29;15.36;118.99
65369;HTU21D;51970;53.484;49.488;2023-06-10T16:18:58;15.40;118.99
65369;HTU21D;51970;53.484;49.488;2023-06-10T16:21:47;15.24;118.99
65369;HTU21D;51970;53.484;49.488;2023-06-10T16:24:19;15.23;118.99
65369;HTU21D;51970;53.484;49.488;2023-06-10T16:26:46;15.17;118.99
65369;HTU21D;51970;53.484;49.488;2023-06-10T16:29:16;15.21;118.99
65369;HTU21D;51970;53.484;49.488;2023-06-10T16:31:43;15.25;118.99
65369;HTU21D;51970;53.484;49.488;2023-06-10T16:34:10;15.24;118.99
65369;HTU21D;51970;53.484;49.488;2023-06-10T16:37:00;15.17;117.50
65369;HTU21D;51970;53.484;49.488;2023-06-10T16:39:51;15.18;112.87
65369;HTU21D;51970;53.484;49.488;2023-06-10T16:42:21;15.27;108.69
65369;HTU21D;51970;53.484;49.488;2023-06-10T16:44:57;15.28;103.55
65369;HTU21D;51970;53.484;49.488;2023-06-10T16:47:58;15.39;101.64
65369;HTU21D;51970;53.484;49.488;2023-06-10T16:50:48;15.23;100.11
65369;HTU21D;51970;53.484;49.488;2023-06-10T16:53:23;15.34;98.53
65369;HTU21D;51970;53.484;49.488;2023-06-10T16:56:08;15.67;98.06
65369;HTU21D;51970;53.484;49.488;2023-06-10T16:58:36;15.60;96.17
65369;HTU21D;51970;53.484;49.488;2023-06-10T17:01:08;15.73;94.93
65369;HTU21D;51970;53.484;49.488;2023-06-10T17:03:43;15.67;89.76
65369;HTU21D;51970;53.484;49.488;2023-06-10T17:06:19;15.83;84.29
65369;HTU21D;51970;53.484;49.488;2023-06-10T17:09:11;15.96;80.01
65369;HTU21D;51970;53.484;49.488;2023-06-10T17:12:32;16.01;78.15
65369;HTU21D;51970;53.484;49.488;2023-06-10T17:15:03;16.03;78.36
65369;HTU21D;51970;53.484;49.488;2023-06-10T17:18:19;16.04;75.71
65369;HTU21D;51970;53.484;49.488;2023-06-10T17:21:07;16.04;73.70
65369;HTU21D;51970;53.484;49.488;2023-06-10T17:24:27;16.01;73.46
65369;HTU21D;51970;53.484;49.488;2023-06-10T17:26:56;15.99;73.68
65369;HTU21D;51970;53.484;49.488;2023-06-10T17:29:25;15.96;73.03
65369;HTU21D;51970;53.484;49.488;2023-06-10T17:32:00;15.92;72.12
65369;HTU21D;51970;53.484;49.488;2023-06-10T17:34:31;15.97;72.97
65369;HTU21D;51970;53.484;49.488;2023-06-10T17:37:28;15.88;72.85
65369;HTU21D;51970;53.484;49.488;2023-06-10T17:40:33;15.80;72.47
65369;HTU21D;51970;53.484;49.488;2023-06-10T17:43:29;15.74;72.61
65369;HTU21D;51970;53.484;49.488;2023-06-10T17:46:01;15.68;72.78
65369;HTU21D;51970;53.484;49.488;2023-06-10T17:48:32;15.69;73.28
65369;HTU21D;51970;53.484;49.488;2023-06-10T17:51:50;15.63;73.21
65369;HTU21D;51970;53.484;49.488;2023-06-10T17:54:35;15.59;74.06
65369;HTU21D;51970;53.484;49.488;2023-06-10T17:57:48;15.53;73.90
65369;HTU21D;51970;53.484;49.488;2023-06-10T18:00:40;15.46;74.39
65369;HTU21D;51970;53.484;49.488;2023-06-10T18:03:07;15.43;73.99
65369;HTU21D;51970;53.484;49.488;2023-06-10T18:05:38;15.43;74.82
65369;HTU21D;51970;53.484;49.488;2023-06-10T18:08:16;15.34;75.39
65369;HTU21D;51970;53.484;49.488;2023-06-10T18:10:58;15.33;74.97
65369;HTU21D;51970;53.484;49.488;2023-06-10T18:13:26;15.32;75.35
65369;HTU21D;51970;53.484;49.488;2023-06-10T18:16:14;15.32;75.60
65369;HTU21D;51970;53.484;49.488;2023-06-10T18:18:40;15.27;75.73
65369;HTU21D;51970;53.484;49.488;2023-06-10T18:21:14;15.23;76.41
65369;HTU21D;51970;53.484;49.488;2023-06-10T18:23:47;15.19;75.87
65369;HTU21D;51970;53.484;49.488;2023-06-10T18:26:15;15.19;76.27
65369;HTU21D;51970;53.484;49.488;2023-06-10T18:29:06;15.18;76.31
65369;HTU21D;51970;53.484;49.488;2023-06-10T18:32:09;15.16;76.89
65369;HTU21D;51970;53.484;49.488;2023-06-10T18:35:09;15.12;76.83
65369;HTU21D;51970;53.484;49.488;2023-06-10T18:37:51;15.08;76.12
65369;HTU21D;51970;53.484;49.488;2023-06-10T18:40:17;15.07;76.22
65369;HTU21D;51970;53.484;49.488;2023-06-10T18:42:47;15.04;76.61
65369;HTU21D;51970;53.484;49.488;2023-06-10T18:45:20;15.11;76.02
65369;HTU21D;51970;53.484;49.488;2023-06-10T18:48:44;15.01;75.86
65369;HTU21D;51970;53.484;49.488;2023-06-10T18:51:37;15.00;76.12
65369;HTU21D;51970;53.484;49.488;2023-06-10T18:54:35;15.01;75.58
65369;HTU21D;51970;53.484;49.488;2023-06-10T18:57:11;14.93;75.02
65369;HTU21D;51970;53.484;49.488;2023-06-10T18:59:43;14.94;75.69
65369;HTU21D;51970;53.484;49.488;2023-06-10T19:02:24;14.85;75.48
65369;HTU21D;51970;53.484;49.488;2023-06-10T19:05:07;14.84;75.16
65369;HTU21D;51970;53.484;49.488;2023-06-10T19:07:42;14.80;74.89
65369;HTU21D;51970;53.484;49.488;2023-06-10T19:10:33;14.80;75.38
65369;HTU21D;51970;53.484;49.488;2023-06-10T19:13:15;14.78;75.82
65369;HTU21D;51970;53.484;49.488;2023-06-10T19:15:44;14.83;74.81
65369;HTU21D;51970;53.484;49.488;2023-06-10T19:18:15;14.80;74.09
65369;HTU21D;51970;53.484;49.488;2023-06-10T19:20:44;14.77;73.75
65369;HTU21D;51970;53.484;49.488;2023-06-10T19:41:03;14.52;73.63
65369;HTU21D;51970;53.484;49.488;2023-06-10T19:43:34;14.47;74.54
65369;HTU21D;51970;53.484;49.488;2023-06-10T19:46:17;14.42;73.08
65369;HTU21D;51970;53.484;49.488;2023-06-10T19:48:58;14.34;74.22
65369;HTU21D;51970;53.484;49.488;2023-06-10T19:51:27;14.27;74.18
65369;HTU21D;51970;53.484;49.488;2023-06-10T19:54:12;14.22;74.06
65369;HTU21D;51970;53.484;49.488;2023-06-10T19:56:38;14.23;73.86
65369;HTU21D;51970;53.484;49.488;2023-06-10T19:59:07;14.20;73.27
65369;HTU21D;51970;53.484;49.488;2023-06-10T20:01:40;14.14;73.68
65369;HTU21D;51970;53.484;49.488;2023-06-10T20:04:11;14.11;73.33
65369;HTU21D;51970;53.484;49.488;2023-06-10T20:06:39;14.07;72.61
65369;HTU21D;51970;53.484;49.488;2023-06-10T20:09:06;14.06;72.34
65369;HTU21D;51970;53.484;49.488;2023-06-10T20:11:35;13.96;71.80
65369;HTU21D;51970;53.484;49.488;2023-06-10T20:14:02;13.92;71.19
65369;HTU21D;51970;53.484;49.488;2023-06-10T20:16:29;13.83;71.22
65369;HTU21D;51970;53.484;49.488;2023-06-10T20:18:57;13.71;70.72
65369;HTU21D;51970;53.484;49.488;2023-06-10T20:21:25;13.67;71.03
65369;HTU21D;51970;53.484;49.488;2023-06-10T20:23:52;13.62;69.82
65369;HTU21D;51970;53.484;49.488;2023-06-10T20:26:21;13.56;70.84
65369;HTU21D;51970;53.484;49.488;2023-06-10T20:28:50;13.52;70.11
65369;HTU21D;51970;53.484;49.488;2023-06-10T20:31:17;13.47;70.78
65369;HTU21D;51970;53.484;49.488;2023-06-10T20:33:46;13.44;71.24
65369;HTU21D;51970;53.484;49.488;2023-06-10T20:36:17;13.38;72.25
65369;HTU21D;51970;53.484;49.488;2023-06-10T20:38:53;13.30;72.95
65369;HTU21D;51970;53.484;49.488;2023-06-10T20:41:40;13.23;72.15
65369;HTU21D;51970;53.484;49.488;2023-06-10T20:44:21;13.18;71.99
65369;HTU21D;51970;53.484;49.488;2023-06-10T20:46:53;13.16;70.95
65369;HTU21D;51970;53.484;49.488;2023-06-10T20:49:20;13.12;70.81
65369;HTU21D;51970;53.484;49.488;2023-06-10T20:51:49;13.07;71.30
65369;HTU21D;51970;53.484;49.488;2023-06-10T20:54:23;13.07;70.84
65369;HTU21D;51970;53.484;49.488;2023-06-10T20:56:55;13.05;68.47
65369;HTU21D;51970;53.484;49.488;2023-06-10T20:59:21;13.04;69.65
65369;HTU21D;51970;53.484;49.488;2023-06-10T21:01:52;13.02;67.50
65369;HTU21D;51970;53.484;49.488;2023-06-10T21:04:23;12.94;67.12
65369;HTU21D;51970;53.484;49.488;2023-06-10T21:07:03;12.87;67.75
65369;HTU21D;51970;53.484;49.488;2023-06-10T21:09:33;12.81;68.03
65369;HTU21D;51970;53.484;49.488;2023-06-10T21:11:59;12.78;67.83
65369;HTU21D;51970;53.484;49.488;2023-06-10T21:14:29;12.80;67.59
65369;HTU21D;51970;53.484;49.488;2023-06-10T21:16:58;12.79;67.67
65369;HTU21D;51970;53.484;49.488;2023-06-10T21:19:25;12.73;68.33
65369;HTU21D;51970;53.484;49.488;2023-06-10T21:21:51;12.72;68.17
65369;HTU21D;51970;53.484;49.488;2023-06-10T21:24:18;12.66;67.30
65369;HTU21D;51970;53.484;49.488;2023-06-10T21:26:44;12.60;66.95
65369;HTU21D;51970;53.484;49.488;2023-06-10T21:29:12;12.53;68.91
65369;HTU21D;51970;53.484;49.488;2023-06-10T21:31:39;12.55;67.38
65369;HTU21D;51970;53.484;49.488;2023-06-10T21:34:07;12.56;67.97
65369;HTU21D;51970;53.484;49.488;2023-06-10T21:36:34;12.55;67.09
65369;HTU21D;51970;53.484;49.488;2023-06-10T21:39:02;12.51;66.24
65369;HTU21D;51970;53.484;49.488;2023-06-10T21:41:35;12.53;64.63
65369;HTU21D;51970;53.484;49.488;2023-06-10T21:44:05;12.51;63.75
65369;HTU21D;51970;53.484;49.488;2023-06-10T21:46:32;12.52;63.44
65369;HTU21D;51970;53.484;49.488;2023-06-10T21:48:59;12.49;62.99
65369;HTU21D;51970;53.484;49.488;2023-06-10T21:51:30;12.47;61.39
65369;HTU21D;51970;53.484;49.488;2023-06-10T21:53:57;12.48;61.61